Terminal Aerodrome Forecast
Issued by NWS Albany, NY

Home | Current Version | Previous Version | Text Only | Print | Product List | Glossary On
Versions: 1 2 3 4 5 6 7 8 9 10 11 12 13 14 15 16 17 18 19 20
000
FTUS41 KALY 271120
TAFPOU
TAF
KPOU 271120Z 2712/2812 09004KT 4SM -RA BR OVC008 WS020/18030KT
      TEMPO 2712/2714 2SM RA BR OVC005
     FM271600 17006KT 4SM -RA BR OVC009
     FM271800 VRB03KT P6SM OVC010
     FM280000 00000KT 5SM BR OVC006=

USA.gov is the U.S. government's official web portal to all federal, state and local government web resources and services.